Time;durP1;ratioP1;P1;durP2;ratioP2;P2;SDS_P1;SDS_P2;PMS_P1;PMS_P2;Temp;Humidity;BMP_temperature;BMP_pressure;BME280_temperature;BME280_humidity;BME280_pressure;Samples;Min_cycle;Max_cycle;Signal;HPM_P1;HPM_P2
2023/04/18 00:00:10;;;;;;;;;;;;;;;20.45;62.84;102042.61;2178493;80;51689;-74
2023/04/18 00:03:14;;;;;;;;;;;;;;;20.40;62.96;102039.56;2202230;80;50789;-76
2023/04/18 00:06:15;;;;;;;;;;;;;;;20.32;63.16;102039.02;2224547;78;50485;-74
2023/04/18 00:09:17;;;;;;;;;;;;;;;20.31;63.45;102043.20;2258947;78;50404;-74
2023/04/18 00:12:19;;;;;;;;;;;;;;;20.34;63.38;102044.22;2229707;78;49562;-74
2023/04/18 00:15:21;;;;;;;;;;;;;;;20.35;63.30;102044.07;2206775;79;51566;-75
2023/04/18 00:18:25;;;;;;;;;;;;;;;20.42;63.14;102048.28;2196731;80;51480;-76
2023/04/18 00:21:26;;;;;;;;;;;;;;;20.49;63.07;102050.67;2240698;78;22306;-73
2023/04/18 00:24:27;;;;;;;;;;;;;;;20.57;62.76;102050.73;2173803;80;50628;-75
2023/04/18 00:27:29;;;;;;;;;;;;;;;20.56;62.66;102046.38;2196707;80;50346;-74
2023/04/18 00:30:31;;;;;;;;;;;;;;;20.56;62.68;102045.02;2197061;80;50199;-76
2023/04/18 00:33:33;;;;;;;;;;;;;;;20.54;62.68;102042.99;2196801;80;52188;-75
2023/04/18 00:36:35;;;;;;;;;;;;;;;20.48;62.78;102053.03;2173256;80;51006;-76
2023/04/18 00:39:36;;;;;;;;;;;;;;;20.44;62.80;102055.18;2197473;80;51433;-78
2023/04/18 00:42:38;;;;;;;;;;;;;;;20.38;62.85;102056.34;2223062;78;50198;-77
2023/04/18 00:45:39;;;;;;;;;;;;;;;20.33;62.97;102053.30;2239065;78;50086;-77
2023/04/18 00:48:41;;;;;;;;;;;;;;;20.32;63.25;102054.28;2192242;79;51003;-77
2023/04/18 00:51:43;;;;;;;;;;;;;;;20.33;63.22;102053.30;2238554;79;50438;-77
2023/04/18 00:54:44;;;;;;;;;;;;;;;20.36;63.19;102058.34;2238678;79;50390;-77
2023/04/18 00:57:46;;;;;;;;;;;;;;;20.43;62.97;102052.67;2238624;79;50346;-76
2023/04/18 01:00:47;;;;;;;;;;;;;;;20.47;62.81;102051.33;2216037;79;52673;-76
2023/04/18 01:03:49;;;;;;;;;;;;;;;20.53;62.71;102049.87;2216015;79;50364;-76
2023/04/18 01:06:51;;;;;;;;;;;;;;;20.53;62.88;102053.90;2216219;79;51491;-75
2023/04/18 01:09:53;;;;;;;;;;;;;;;20.49;62.93;102047.98;2238636;79;51589;-76
2023/04/18 01:13:10;;;;;;;;;;;;;;;20.45;62.97;102043.44;2216637;78;51053;-76
2023/04/18 01:16:12;;;;;;;;;;;;;;;20.41;63.09;102043.41;2217469;79;50771;-77
2023/04/18 01:19:14;;;;;;;;;;;;;;;20.37;63.21;102047.92;2240858;79;51511;-74
2023/04/18 01:22:15;;;;;;;;;;;;;;;20.31;63.31;102052.61;2180503;80;50677;-76
2023/04/18 01:25:17;;;;;;;;;;;;;;;20.27;63.67;102043.16;2240611;78;51531;-76
2023/04/18 01:28:21;;;;;;;;;;;;;;;20.27;63.71;102045.85;2204657;80;51556;-76
2023/04/18 01:31:22;;;;;;;;;;;;;;;20.31;63.58;102044.55;2241087;78;24507;-76
2023/04/18 01:34:24;;;;;;;;;;;;;;;20.37;63.40;102050.61;2180401;80;51574;-76
2023/04/18 01:37:26;;;;;;;;;;;;;;;20.44;63.18;102053.84;2217626;78;50971;-76
2023/04/18 01:40:28;;;;;;;;;;;;;;;20.45;63.05;102046.64;2182474;80;50410;-76
2023/04/18 01:43:30;;;;;;;;;;;;;;;20.47;62.98;102050.49;2265394;78;51484;-75
2023/04/18 01:46:31;;;;;;;;;;;;;;;20.43;63.06;102044.61;2228931;78;51530;-74
2023/04/18 01:49:33;;;;;;;;;;;;;;;20.43;62.99;102048.64;2258557;78;51897;-77
2023/04/18 01:52:35;;;;;;;;;;;;;;;20.39;63.13;102047.27;2259113;78;50410;-77
2023/04/18 01:55:36;;;;;;;;;;;;;;;20.34;63.23;102044.22;2218665;80;51537;-75
2023/04/18 01:58:38;;;;;;;;;;;;;;;20.27;63.35;102044.51;2203537;80;51547;-77
2023/04/18 02:01:39;;;;;;;;;;;;;;;20.22;63.70;102047.70;2222755;80;50619;-77
2023/04/18 02:04:41;;;;;;;;;;;;;;;20.22;63.75;102047.70;2202129;80;53673;-76
2023/04/18 02:07:42;;;;;;;;;;;;;;;20.27;63.65;102043.16;2202235;80;50244;-77
2023/04/18 02:10:44;;;;;;;;;;;;;;;20.34;63.48;102040.19;2202374;80;51554;-76
2023/04/18 02:13:46;;;;;;;;;;;;;;;20.40;63.26;102038.22;2211719;80;52504;-76
2023/04/18 02:16:47;;;;;;;;;;;;;;;20.42;63.12;102038.39;2198539;81;51600;-77
2023/04/18 02:19:53;;;;;;;;;;;;;;;20.43;63.05;102033.85;2200096;80;51483;-77
2023/04/18 02:22:52;;;;;;;;;;;;;;;20.42;63.04;102033.49;2214526;80;22440;-76
2023/04/18 02:25:54;;;;;;;;;;;;;;;20.39;63.10;102041.89;2152444;80;51685;-76
2023/04/18 02:28:57;;;;;;;;;;;;;;;20.34;63.15;102036.98;2197069;80;51463;-78
2023/04/18 02:31:58;;;;;;;;;;;;;;;20.30;63.27;102035.64;2210469;78;50281;-73
2023/04/18 02:35:00;;;;;;;;;;;;;;;20.23;63.42;102035.43;2193741;79;50421;-77
2023/04/18 02:38:02;;;;;;;;;;;;;;;20.19;63.68;102041.27;2193777;79;49561;-78
2023/04/18 02:41:03;;;;;;;;;;;;;;;20.17;63.74;102041.45;2193843;79;50307;-76
2023/04/18 02:44:05;;;;;;;;;;;;;;;20.23;63.71;102042.14;2263134;78;51519;-78
2023/04/18 02:47:07;;;;;;;;;;;;;;;20.30;63.50;102040.19;2281947;78;50384;-78
2023/04/18 02:50:09;;;;;;;;;;;;;;;20.37;63.25;102049.27;2281890;78;50721;-78
2023/04/18 02:53:10;;;;;;;;;;;;;;;20.40;63.07;102046.28;2249488;78;50151;-76
2023/04/18 02:56:15;;;;;;;;;;;;;;;20.42;62.98;102046.46;2281852;78;50342;-77
2023/04/18 02:59:17;;;;;;;;;;;;;;;20.38;62.98;102050.45;2281993;78;50756;-77
2023/04/18 03:02:19;;;;;;;;;;;;;;;20.36;63.03;102048.94;2225146;78;50241;-78
2023/04/18 03:05:21;;;;;;;;;;;;;;;20.32;63.13;102048.91;2249112;78;50153;-78
2023/04/18 03:08:22;;;;;;;;;;;;;;;20.28;63.26;102047.55;2249322;78;51541;-78
2023/04/18 03:11:24;;;;;;;;;;;;;;;20.19;63.42;102044.83;2249243;78;50312;-77
2023/04/18 03:14:26;;;;;;;;;;;;;;;20.16;63.62;102050.50;2219699;79;51830;-77
2023/04/18 03:17:27;;;;;;;;;;;;;;;20.19;63.70;102054.23;2212933;79;50379;-76
2023/04/18 03:20:29;;;;;;;;;;;;;;;20.21;63.64;102051.38;2244560;78;50810;-76
2023/04/18 03:23:30;;;;;;;;;;;;;;;20.28;63.49;102058.31;2224749;78;50795;-77
2023/04/18 03:26:32;;;;;;;;;;;;;;;20.32;63.36;102051.59;2225034;78;52132;-78
2023/04/18 03:29:34;;;;;;;;;;;;;;;20.38;63.18;102056.34;2249235;78;51495;-77
2023/04/18 03:32:35;;;;;;;;;;;;;;;20.39;63.09;102056.67;2249284;78;50643;-77
2023/04/18 03:35:37;;;;;;;;;;;;;;;20.38;63.10;102053.66;2249095;78;50742;-78
2023/04/18 03:38:39;;;;;;;;;;;;;;;20.34;63.15;102051.77;2281892;78;51505;-77
2023/04/18 03:41:41;;;;;;;;;;;;;;;20.33;63.18;102050.61;2225154;78;51229;-78
2023/04/18 03:44:42;;;;;;;;;;;;;;;20.29;63.30;102055.95;2249126;78;50542;-78
2023/04/18 03:47:44;;;;;;;;;;;;;;;20.23;63.31;102056.09;2282172;78;51516;-76
2023/04/18 03:50:45;;;;;;;;;;;;;;;20.16;63.58;102058.56;2244370;78;51333;-77
2023/04/18 03:53:46;;;;;;;;;;;;;;;;;;2199283;79;50923;-77
2023/04/18 03:56:48;;;;;;;;;;;;;;;20.22;63.63;102054.42;2236315;79;49631;-74
2023/04/18 03:59:50;;;;;;;;;;;;;;;20.29;63.70;102057.30;2244137;79;50723;-74
2023/04/18 04:02:51;;;;;;;;;;;;;;;20.35;63.49;102056.67;2243995;79;50321;-75
2023/04/18 04:05:53;;;;;;;;;;;;;;;20.36;63.34;102057.84;2243605;79;50412;-75
2023/04/18 04:08:55;;;;;;;;;;;;;;;20.37;63.31;102061.36;2236161;79;50934;-76
2023/04/18 04:11:57;;;;;;;;;;;;;;;20.37;63.28;102064.05;2212169;79;51594;-76
2023/04/18 04:14:58;;;;;;;;;;;;;;;20.34;63.26;102059.00;2243826;79;51538;-75
2023/04/18 04:18:00;;;;;;;;;;;;;;;20.30;63.57;102061.69;2243955;79;51727;-73
2023/04/18 04:21:02;;;;;;;;;;;;;;;20.26;63.53;102065.68;2236223;79;52345;-75
2023/04/18 04:24:04;;;;;;;;;;;;;;;20.21;63.55;102066.16;2239401;78;50671;-72
2023/04/18 04:27:05;;;;;;;;;;;;;;;20.15;63.91;102073.02;2248448;78;50325;-72
2023/04/18 04:30:08;;;;;;;;;;;;;;;20.20;63.89;102073.89;2248585;78;50629;-72
2023/04/18 04:33:10;;;;;;;;;;;;;;;20.25;63.49;102078.80;2224715;78;52445;-72
2023/04/18 04:36:13;;;;;;;;;;;;;;;20.32;63.16;102083.84;2248245;78;50112;-72
2023/04/18 04:39:16;;;;;;;;;;;;;;;20.37;62.84;102081.52;2281324;78;51636;-72
2023/04/18 04:42:18;;;;;;;;;;;;;;;20.35;62.70;102083.55;2248707;78;50828;-74
2023/04/18 04:45:20;;;;;;;;;;;;;;;20.28;60.79;102081.16;2211815;78;51198;-74
2023/04/18 04:48:23;;;;;;;;;;;;;;;20.23;61.17;102081.12;2250752;78;51556;-74
2023/04/18 04:51:26;;;;;;;;;;;;;;;20.19;61.12;102081.11;2269786;78;50385;-73
2023/04/18 04:54:28;;;;;;;;;;;;;;;20.13;61.21;102080.89;2243337;79;51586;-75
2023/04/18 04:57:29;;;;;;;;;;;;;;;20.08;61.60;102082.70;2187172;79;52410;-73
2023/04/18 05:00:31;;;;;;;;;;;;;;;19.99;58.47;102083.16;2244927;79;51478;-74
2023/04/18 05:03:33;;;;;;;;;;;;;;;20.01;59.49;102087.02;2242220;79;50251;-74
2023/04/18 05:06:35;;;;;;;;;;;;;;;20.07;59.78;102093.12;2241814;79;51533;-73
2023/04/18 05:09:36;;;;;;;;;;;;;;;20.15;60.12;102093.17;2210544;79;52531;-73
2023/04/18 05:12:38;;;;;;;;;;;;;;;20.20;60.20;102086.82;2213812;79;51469;-73
2023/04/18 05:15:39;;;;;;;;;;;;;;;20.33;60.19;102093.62;2241854;79;51452;-73
2023/04/18 05:18:41;;;;;;;;;;;;;;;20.38;60.25;102093.98;2210027;79;52553;-73
2023/04/18 05:21:43;;;;;;;;;;;;;;;20.40;60.28;102103.58;2197383;78;51093;-73
2023/04/18 05:24:45;;;;;;;;;;;;;;;20.45;60.31;102103.10;2219965;79;52286;-75
2023/04/18 05:27:47;;;;;;;;;;;;;;;20.48;60.42;102098.73;2212398;79;50332;-76
2023/04/18 05:30:48;;;;;;;;;;;;;;;20.56;60.36;102099.31;2212175;79;50707;-77
2023/04/18 05:33:50;;;;;;;;;;;;;;;20.62;60.33;102102.70;2188681;78;50981;-76
2023/04/18 05:36:52;;;;;;;;;;;;;;;20.65;60.38;102099.20;2211974;79;50462;-77
2023/04/18 05:39:53;;;;;;;;;;;;;;;20.62;60.60;102100.84;2243925;79;51529;-78
2023/04/18 05:42:55;;;;;;;;;;;;;;;20.66;60.62;102102.22;2212182;79;51430;-76
2023/04/18 05:45:56;;;;;;;;;;;;;;;20.71;60.72;102102.25;2234640;79;51608;-76
2023/04/18 05:48:58;;;;;;;;;;;;;;;20.76;60.64;102104.78;2235174;79;50267;-76
2023/04/18 05:51:59;;;;;;;;;;;;;;;20.81;60.54;102110.52;2248882;78;50299;-75
2023/04/18 05:55:01;;;;;;;;;;;;;;;20.70;60.67;102107.27;2228551;78;50406;-75
2023/04/18 05:58:03;;;;;;;;;;;;;;;20.62;60.87;102108.08;2232801;78;50301;-75
2023/04/18 06:01:05;;;;;;;;;;;;;;;20.54;61.03;102104.84;2232709;78;50720;-75
2023/04/18 06:04:07;;;;;;;;;;;;;;;20.48;61.14;102106.81;2229556;78;51735;-76
2023/04/18 06:07:09;;;;;;;;;;;;;;;20.40;61.32;102104.08;2253810;78;50726;-75
2023/04/18 06:10:12;;;;;;;;;;;;;;;20.33;61.45;102101.69;2208721;78;52571;-75
2023/04/18 06:13:13;;;;;;;;;;;;;;;20.31;61.99;102103.68;2266683;78;50092;-75
2023/04/18 06:16:15;;;;;;;;;;;;;;;20.29;62.31;102111.89;2232543;78;50352;-77
2023/04/18 06:19:16;;;;;;;;;;;;;;;20.34;62.47;102114.11;2265091;78;50418;-75
2023/04/18 06:22:18;;;;;;;;;;;;;;;20.37;62.33;102110.63;2206820;79;51680;-76
2023/04/18 06:25:20;;;;;;;;;;;;;;;20.41;62.21;102118.69;2212060;79;50299;-75
2023/04/18 06:28:21;;;;;;;;;;;;;;;20.41;62.23;102117.85;2212132;79;50310;-74
2023/04/18 06:31:23;;;;;;;;;;;;;;;20.38;62.48;102119.52;2212141;78;52259;-75
2023/04/18 06:34:25;;;;;;;;;;;;;;;20.35;62.57;102120.69;2211968;79;50669;-75
2023/04/18 06:37:26;;;;;;;;;;;;;;;20.35;62.60;102119.84;2211968;79;50626;-74
2023/04/18 06:40:28;;;;;;;;;;;;;;;20.32;62.61;102121.00;2244011;78;51657;-76
2023/04/18 06:43:29;;;;;;;;;;;;;;;20.23;62.87;102125.47;2244079;78;50430;-76
2023/04/18 06:46:31;;;;;;;;;;;;;;;20.19;63.05;102134.87;2212026;79;51548;-77
2023/04/18 06:49:34;;;;;;;;;;;;;;;20.18;63.17;102127.78;2244064;79;51516;-74
2023/04/18 06:52:39;;;;;;;;;;;;;;;20.23;63.06;102134.87;2255977;78;50269;-76
2023/04/18 06:55:39;;;;;;;;;;;;;;;20.29;62.83;102145.48;2279157;77;22384;-76
2023/04/18 06:58:41;;;;;;;;;;;;;;;20.37;62.56;102135.29;2191951;79;51777;-74
2023/04/18 07:01:42;;;;;;;;;;;;;;;20.46;62.28;102141.07;2252054;78;50299;-75
2023/04/18 07:04:44;;;;;;;;;;;;;;;20.55;62.06;102133.91;2275561;78;50268;-75
2023/04/18 07:07:46;;;;;;;;;;;;;;;20.60;61.86;102134.28;2252117;78;50796;-76
2023/04/18 07:10:47;;;;;;;;;;;;;;;20.64;61.75;102136.49;2251917;78;52558;-76
2023/04/18 07:13:49;;;;;;;;;;;;;;;20.65;60.66;102135.98;2251856;78;50365;-76
2023/04/18 07:16:50;;;;;;;;;;;;;;;20.38;57.04;102135.66;2276185;78;51466;-75
2023/04/18 07:19:52;;;;;;;;;;;;;;;20.15;56.19;102133.98;2276580;78;51427;-74
2023/04/18 07:22:53;;;;;;;;;;;;;;;20.14;56.73;102135.84;2256625;78;52344;-74
2023/04/18 07:25:57;;;;;;;;;;;;;;;20.18;56.89;102135.84;2227535;79;51452;-74
2023/04/18 07:28:58;;;;;;;;;;;;;;;20.23;57.17;102146.97;2250818;78;23853;-74
2023/04/18 07:32:00;;;;;;;;;;;;;;;20.39;57.34;102136.81;2222330;79;50638;-74
2023/04/18 07:35:02;;;;;;;;;;;;;;;20.55;57.51;102135.26;2250709;78;52527;-74
2023/04/18 07:38:04;;;;;;;;;;;;;;;20.65;57.49;102143.58;2250702;78;51599;-75
2023/04/18 07:41:05;;;;;;;;;;;;;;;20.76;57.51;102142.95;2222367;80;50255;-75
2023/04/18 07:44:07;;;;;;;;;;;;;;;20.89;57.32;102148.72;2250746;78;51536;-76
2023/04/18 07:47:11;;;;;;;;;;;;;;;20.91;57.25;102148.06;2225992;79;51055;-75
2023/04/18 07:50:12;;;;;;;;;;;;;;;20.95;57.16;102152.10;2222429;79;50148;-76
2023/04/18 07:53:14;;;;;;;;;;;;;;;20.89;57.36;102150.07;2250336;79;50255;-75
2023/04/18 07:56:16;;;;;;;;;;;;;;;20.90;57.29;102149.05;2223870;79;50435;-75
2023/04/18 07:59:17;;;;;;;;;;;;;;;20.84;57.42;102141.13;2221130;79;52366;-75
2023/04/18 08:02:20;;;;;;;;;;;;;;;20.80;57.52;102148.34;2202340;80;51545;-75
2023/04/18 08:05:21;;;;;;;;;;;;;;;20.71;57.84;102143.43;2240400;79;50056;-75
2023/04/18 08:08:23;;;;;;;;;;;;;;;20.61;58.09;102138.16;2202107;80;50345;-76
2023/04/18 08:11:25;;;;;;;;;;;;;;;20.54;58.32;102138.45;2221529;78;51190;-75
2023/04/18 08:14:26;;;;;;;;;;;;;;;20.55;58.43;102142.84;2222363;80;50172;-76
2023/04/18 08:17:28;;;;;;;;;;;;;;;20.61;58.31;102144.89;2240543;79;50259;-77
2023/04/18 08:20:29;;;;;;;;;;;;;;;20.65;58.24;102150.30;2202963;80;50734;-74
2023/04/18 08:23:31;;;;;;;;;;;;;;;20.73;58.06;102148.63;2196834;79;51153;-74
2023/04/18 08:26:32;;;;;;;;;;;;;;;20.77;57.92;102147.31;2222331;80;50335;-75
2023/04/18 08:29:34;;;;;;;;;;;;;;;20.77;57.89;102147.31;2240678;79;50631;-75
2023/04/18 08:32:36;;;;;;;;;;;;;;;20.76;57.83;102147.83;2202318;80;51446;-74
2023/04/18 08:35:37;;;;;;;;;;;;;;;20.69;57.97;102147.28;2197825;79;51049;-74
2023/04/18 08:38:39;;;;;;;;;;;;;;;20.66;57.97;102147.94;2222376;80;50630;-74
2023/04/18 08:41:41;;;;;;;;;;;;;;;20.53;58.28;102142.13;2221739;79;51439;-75
2023/04/18 08:44:43;;;;;;;;;;;;;;;20.48;58.46;102153.86;2222219;80;50813;-75
2023/04/18 08:47:45;;;;;;;;;;;;;;;20.48;58.64;102146.30;2198246;79;51251;-74
2023/04/18 08:50:47;;;;;;;;;;;;;;;20.51;58.58;102150.84;2205422;79;51575;-74
2023/04/18 08:53:49;;;;;;;;;;;;;;;20.57;58.46;102151.58;2229795;78;50082;-75
2023/04/18 08:57:03;;;;;;;;;;;;;;;20.60;58.42;102147.25;2222360;79;50764;-75
2023/04/18 09:00:10;;;;;;;;;;;;;;;20.70;58.15;102150.30;2201942;80;51560;-75
2023/04/18 09:03:09;;;;;;;;;;;;;;;20.76;58.03;102137.06;2201654;80;22441;-75
2023/04/18 09:06:19;;;;;;;;;;;;;;;20.86;57.80;102149.89;2202039;79;51540;-75
2023/04/18 09:09:26;;;;;;;;;;;;;;;20.87;57.76;102152.07;2202660;80;51600;-75
2023/04/18 09:12:25;;;;;;;;;;;;;;;20.87;57.75;102158.29;2221948;80;22299;-75
2023/04/18 09:15:27;;;;;;;;;;;;;;;20.79;57.85;102154.22;2222193;79;50680;-74
2023/04/18 09:18:29;;;;;;;;;;;;;;;20.81;57.80;102166.18;2222464;80;51610;-74
2023/04/18 09:21:31;;;;;;;;;;;;;;;20.76;57.92;102157.75;2233775;78;50434;-75
2023/04/18 09:24:33;;;;;;;;;;;;;;;20.74;58.00;102153.02;2182234;79;51302;-74
2023/04/18 09:27:35;;;;;;;;;;;;;;;20.68;58.22;102150.95;2202851;80;50776;-76
2023/04/18 09:30:40;;;;;;;;;;;;;;;20.69;58.33;102148.13;2225284;80;51613;-76
2023/04/18 09:33:45;;;;;;;;;;;;;;;20.74;58.24;102146.30;2223753;80;22367;-77
2023/04/18 09:36:47;;;;;;;;;;;;;;;20.81;57.85;102150.88;2223678;80;23650;-76
2023/04/18 09:39:49;;;;;;;;;;;;;;;20.90;57.66;102152.25;2202141;80;50372;-73
2023/04/18 09:42:53;;;;;;;;;;;;;;;20.96;57.47;102156.50;2223572;80;50720;-74
2023/04/18 09:45:54;;;;;;;;;;;;;;;20.98;57.41;102157.16;2223843;80;50782;-75
2023/04/18 09:48:56;;;;;;;;;;;;;;;20.99;57.50;102148.09;2224165;80;50490;-74
2023/04/18 09:51:58;;;;;;;;;;;;;;;20.99;57.64;102148.09;2240151;78;50489;-74
2023/04/18 09:54:59;;;;;;;;;;;;;;;20.92;57.81;102145.70;2266537;77;51395;-76
2023/04/18 09:58:01;;;;;;;;;;;;;;;20.90;58.00;102148.22;2238764;79;50227;-76
2023/04/18 10:01:03;;;;;;;;;;;;;;;20.68;55.27;102145.10;2253491;78;51719;-75
2023/04/18 10:04:09;;;;;;;;;;;;;;;20.52;53.94;102142.28;2253228;78;50493;-76
2023/04/18 10:07:08;;;;;;;;;;;;;;;20.50;54.28;102140.23;2272836;78;22677;-75
2023/04/18 10:10:10;;;;;;;;;;;;;;;20.56;54.47;102137.80;2277448;78;50724;-76
2023/04/18 10:13:12;;;;;;;;;;;;;;;20.63;54.58;102139.36;2254029;78;51025;-75
2023/04/18 10:16:15;;;;;;;;;;;;;;;20.69;54.76;102143.25;2277271;78;51387;-75
2023/04/18 10:19:22;;;;;;;;;;;;;;;20.78;54.85;102136.89;2277935;78;51527;-75
2023/04/18 10:22:27;;;;;;;;;;;;;;;20.90;54.90;102137.45;2263768;77;51486;-76
2023/04/18 10:25:36;;;;;;;;;;;;;;;20.97;55.00;102142.53;2231183;79;50950;-75
2023/04/18 10:28:55;;;;;;;;;;;;;;;21.06;54.93;102137.50;2240189;79;51579;-74
2023/04/18 10:31:54;;;;;;;;;;;;;;;21.10;54.87;102135.67;2240592;78;21757;-76
2023/04/18 10:34:56;;;;;;;;;;;;;;;21.12;54.98;102136.00;2241589;78;50940;-75
2023/04/18 10:37:58;;;;;;;;;;;;;;;21.09;55.15;102138.03;2219437;79;50481;-75
2023/04/18 10:41:20;;;;;;;;;;;;;;;21.07;55.23;102138.70;2241719;78;21904;-76
2023/04/18 10:44:23;;;;;;;;;;;;;;;20.99;55.53;102143.19;2241417;79;23603;-75
2023/04/18 10:47:24;;;;;;;;;;;;;;;20.98;55.59;102143.70;2241475;78;50218;-75
2023/04/18 10:50:26;;;;;;;;;;;;;;;20.93;55.78;102141.99;2218442;79;50687;-76
2023/04/18 10:53:28;;;;;;;;;;;;;;;20.87;56.00;102137.27;2233965;78;50441;-76
2023/04/18 10:56:29;;;;;;;;;;;;;;;20.89;55.98;102146.03;2252588;78;50468;-76
2023/04/18 10:59:31;;;;;;;;;;;;;;;20.99;55.80;102140.49;2252126;78;51534;-75
2023/04/18 11:02:33;;;;;;;;;;;;;;;21.06;55.71;102134.81;2228193;78;52574;-76
2023/04/18 11:05:34;;;;;;;;;;;;;;;21.07;55.76;102140.55;2275756;78;51408;-76
2023/04/18 11:08:36;;;;;;;;;;;;;;;21.12;55.75;102136.00;2276213;78;51473;-77
2023/04/18 11:11:38;;;;;;;;;;;;;;;21.08;55.77;102144.41;2276217;78;51411;-75
2023/04/18 11:14:40;;;;;;;;;;;;;;;21.04;55.96;102136.81;2252374;78;51176;-75
2023/04/18 11:17:41;;;;;;;;;;;;;;;20.99;56.17;102143.19;2275999;78;50688;-76
2023/04/18 11:20:48;;;;;;;;;;;;;;;20.95;56.29;102137.30;2249679;78;51441;-76
2023/04/18 11:23:49;;;;;;;;;;;;;;;20.87;56.50;102136.77;2256841;78;50734;-76
2023/04/18 11:26:54;;;;;;;;;;;;;;;20.78;56.76;102133.72;2252108;78;51199;-75
2023/04/18 11:29:56;;;;;;;;;;;;;;;20.86;56.78;102134.26;2275985;78;51482;-76
2023/04/18 11:32:58;;;;;;;;;;;;;;;20.92;56.76;102126.87;2276058;78;51445;-75
2023/04/18 11:35:59;;;;;;;;;;;;;;;21.00;56.69;102133.62;2252262;78;51665;-77
2023/04/18 11:39:01;;;;;;;;;;;;;;;21.06;56.55;102130.27;2228104;78;52319;-77
2023/04/18 11:42:03;;;;;;;;;;;;;;;21.10;56.65;102130.80;2276107;78;51497;-77
2023/04/18 11:45:06;;;;;;;;;;;;;;;21.07;56.80;102130.63;2276266;78;51459;-76
2023/04/18 11:48:08;;;;;;;;;;;;;;;21.01;57.07;102121.84;2275740;78;50701;-76
2023/04/18 11:51:11;;;;;;;;;;;;;;;20.95;57.29;102119.81;2220057;78;52314;-76
2023/04/18 11:54:31;;;;;;;;;;;;;;;20.91;57.30;102118.95;2247909;78;51450;-76
2023/04/18 11:57:32;;;;;;;;;;;;;;;20.85;57.29;102112.38;2222452;80;50701;-75
2023/04/18 12:00:37;;;;;;;;;;;;;;;20.78;57.39;102105.95;2222594;80;50268;-76
2023/04/18 12:03:39;;;;;;;;;;;;;;;20.81;57.24;102116.41;2178932;80;52396;-75
2023/04/18 12:06:47;;;;;;;;;;;;;;;20.88;57.15;102121.45;2222188;80;51557;-76
2023/04/18 12:09:50;;;;;;;;;;;;;;;20.92;57.10;102114.77;2222345;80;50309;-75
2023/04/18 12:12:53;;;;;;;;;;;;;;;21.00;57.00;102116.12;2222388;80;50261;-74
2023/04/18 12:15:55;;;;;;;;;;;;;;;21.05;56.85;102116.48;2178584;80;51743;-75
2023/04/18 12:18:59;;;;;;;;;;;;;;;21.04;56.85;102121.53;2202170;80;50363;-76
2023/04/18 12:22:05;;;;;;;;;;;;;;;21.03;56.84;102122.52;2233803;78;50364;-76
2023/04/18 12:25:13;;;;;;;;;;;;;;;21.00;56.89;102118.81;2274222;78;50374;-75
2023/04/18 12:28:15;;;;;;;;;;;;;;;20.97;56.96;102119.16;2278832;78;21763;-76
2023/04/18 12:31:20;;;;;;;;;;;;;;;20.90;57.10;102114.07;2260572;78;21817;-74
2023/04/18 12:34:21;;;;;;;;;;;;;;;20.80;57.26;102107.98;2279039;77;23262;-74
2023/04/18 12:37:24;;;;;;;;;;;;;;;20.77;57.34;102108.31;2259848;78;50342;-74
2023/04/18 12:40:26;;;;;;;;;;;;;;;20.81;57.32;102117.25;2259393;78;51189;-73
2023/04/18 12:43:27;;;;;;;;;;;;;;;20.82;57.26;102111.36;2260232;78;50791;-75
2023/04/18 12:46:29;;;;;;;;;;;;;;;20.93;57.09;102115.59;2239570;78;51528;-75
2023/04/18 12:49:31;;;;;;;;;;;;;;;20.96;57.05;102116.13;2261044;78;50528;-75
2023/04/18 12:52:32;;;;;;;;;;;;;;;21.01;56.90;102115.11;2244975;78;51678;-76
2023/04/18 12:55:34;;;;;;;;;;;;;;;21.03;56.83;102117.14;2215363;80;52499;-75
2023/04/18 12:58:36;;;;;;;;;;;;;;;20.99;56.85;102111.77;2201045;81;50282;-75
2023/04/18 13:01:38;;;;;;;;;;;;;;;20.96;56.78;102108.06;2241780;79;50664;-74
2023/04/18 13:04:39;;;;;;;;;;;;;;;20.88;57.01;102110.70;2199242;79;51658;-74
2023/04/18 13:07:41;;;;;;;;;;;;;;;20.87;57.05;102104.98;2242208;79;50468;-74
2023/04/18 13:10:43;;;;;;;;;;;;;;;20.77;57.22;102107.80;2242449;79;51426;-75
2023/04/18 13:13:45;;;;;;;;;;;;;;;20.73;57.28;102095.70;2238966;79;51376;-74
2023/04/18 13:16:47;;;;;;;;;;;;;;;20.75;57.36;102100.91;2222985;78;51941;-74
2023/04/18 13:19:49;;;;;;;;;;;;;;;20.78;57.29;102093.84;2268116;78;50110;-75
2023/04/18 13:22:51;;;;;;;;;;;;;;;20.87;57.14;102091.53;2243939;78;51289;-75
2023/04/18 13:25:52;;;;;;;;;;;;;;;20.92;57.03;102087.85;2237836;78;50381;-74
2023/04/18 13:28:54;;;;;;;;;;;;;;;20.98;56.94;102087.19;2210453;80;51060;-74
2023/04/18 13:31:55;;;;;;;;;;;;;;;20.99;56.90;102088.89;2231435;80;50554;-74
2023/04/18 13:34:57;;;;;;;;;;;;;;;20.98;56.95;102083.66;2231447;80;50717;-75
2023/04/18 13:37:59;;;;;;;;;;;;;;;20.92;57.04;102081.13;2231514;80;50616;-75
2023/04/18 13:41:00;;;;;;;;;;;;;;;20.88;57.21;102086.48;2187678;80;50985;-76
2023/04/18 13:44:02;;;;;;;;;;;;;;;20.79;57.36;102086.13;2211025;80;50737;-75
2023/04/18 13:47:04;;;;;;;;;;;;;;;20.74;57.46;102085.27;2231591;80;49939;-75
2023/04/18 13:50:06;;;;;;;;;;;;;;;20.66;57.72;102076.66;2231563;80;50670;-76
2023/04/18 13:53:08;;;;;;;;;;;;;;;20.74;57.64;102069.64;2207909;78;53330;-75
2023/04/18 13:56:11;;;;;;;;;;;;;;;20.79;57.63;102071.34;2268259;78;51483;-75
2023/04/18 13:59:12;;;;;;;;;;;;;;;20.87;57.44;102073.54;2268559;78;49896;-75
2023/04/18 14:02:14;;;;;;;;;;;;;;;20.95;57.36;102070.03;2247232;78;50902;-76
2023/04/18 14:05:16;;;;;;;;;;;;;;;21.00;57.24;102070.37;2247121;78;52577;-76
2023/04/18 14:08:17;;;;;;;;;;;;;;;20.99;57.40;102071.40;2240781;78;50810;-77
2023/04/18 14:11:19;;;;;;;;;;;;;;;20.96;57.51;102075.77;2241479;78;50212;-76
2023/04/18 14:14:22;;;;;;;;;;;;;;;20.89;57.88;102068.01;2215072;79;51413;-76
2023/04/18 14:17:23;;;;;;;;;;;;;;;20.79;58.06;102064.10;2185682;80;49318;-76
2023/04/18 14:20:25;;;;;;;;;;;;;;;20.74;58.25;102069.64;2203716;79;50058;-77
2023/04/18 14:23:27;;;;;;;;;;;;;;;20.67;58.42;102068.09;2223552;79;50264;-77
2023/04/18 14:26:28;;;;;;;;;;;;;;;20.63;58.75;102063.55;2202692;80;50669;-77
2023/04/18 14:29:30;;;;;;;;;;;;;;;20.65;58.78;102057.51;2202875;80;49542;-77
2023/04/18 14:32:31;;;;;;;;;;;;;;;20.71;58.71;102056.02;2215657;79;50500;-77
2023/04/18 14:35:33;;;;;;;;;;;;;;;20.77;58.56;102058.55;2214719;79;50348;-77
2023/04/18 14:38:35;;;;;;;;;;;;;;;20.82;58.41;102053.02;2279587;77;51666;-79
2023/04/18 14:41:36;;;;;;;;;;;;;;;20.84;58.37;102048.82;2238797;78;52456;-77
2023/04/18 14:44:38;;;;;;;;;;;;;;;20.82;58.39;102065.11;2258833;78;51435;-76
2023/04/18 14:47:40;;;;;;;;;;;;;;;20.79;58.54;102048.47;2237932;78;51542;-76
2023/04/18 14:50:42;;;;;;;;;;;;;;;20.75;58.74;102047.10;2236059;78;51472;-76
2023/04/18 14:53:44;;;;;;;;;;;;;;;20.70;59.05;102042.72;2205352;79;49368;-76
2023/04/18 14:56:46;;;;;;;;;;;;;;;20.64;59.27;102039.67;2222723;78;50430;-76
2023/04/18 14:59:48;;;;;;;;;;;;;;;20.59;59.46;102044.70;2236114;79;50191;-74
2023/04/18 15:02:50;;;;;;;;;;;;;;;20.60;59.42;102043.71;2256859;78;51631;-76
2023/04/18 15:05:52;;;;;;;;;;;;;;;20.70;59.31;102044.05;2281079;77;50932;-75
2023/04/18 15:08:53;;;;;;;;;;;;;;;20.79;59.12;102043.09;2289160;77;52203;-76
2023/04/18 15:11:57;;;;;;;;;;;;;;;20.88;58.89;102037.58;2219813;79;51424;-76
2023/04/18 15:15:01;;;;;;;;;;;;;;;20.92;58.77;102030.52;2298636;76;50435;-77
2023/04/18 15:18:03;;;;;;;;;;;;;;;20.93;58.78;102033.53;2233035;77;51730;-77
2023/04/18 15:21:05;;;;;;;;;;;;;;;20.88;58.80;102029.98;2262206;78;50459;-77
2023/04/18 15:24:07;;;;;;;;;;;;;;;20.82;58.81;102037.37;2225731;78;51564;-76
2023/04/18 15:27:09;;;;;;;;;;;;;;;20.75;58.91;102038.52;2209430;80;50275;-76
2023/04/18 15:30:11;;;;;;;;;;;;;;;20.70;59.04;102042.72;2189487;79;52319;-74
2023/04/18 15:33:12;;;;;;;;;;;;;;;20.64;59.41;102031.60;2209964;80;50691;-75
2023/04/18 15:36:14;;;;;;;;;;;;;;;20.64;59.62;102028.91;2230293;79;51441;-75